createdAt,value
2022-10-02T00:01:28.599Z,90.03
2022-10-02T00:03:58.447Z,90.28
2022-10-02T00:06:36.204Z,90.08
2022-10-02T00:09:07.855Z,90.22
2022-10-02T00:11:44.008Z,90.15
2022-10-02T00:14:16.726Z,90.11
2022-10-02T00:16:49.787Z,90.15
2022-10-02T00:19:20.444Z,90.32
2022-10-02T00:22:31.410Z,90.22
2022-10-02T00:25:09.262Z,90.12
2022-10-02T00:28:06.843Z,90.11
2022-10-02T00:30:46.685Z,90.43
2022-10-02T00:33:24.963Z,90.08
2022-10-02T00:36:10.870Z,90.05
2022-10-02T00:38:58.329Z,90.42
2022-10-02T00:42:25.363Z,90.26
2022-10-02T00:45:30.333Z,90.00
2022-10-02T00:48:08.571Z,90.15
2022-10-02T00:50:48.274Z,90.06
2022-10-02T00:53:31.036Z,90.06
2022-10-02T00:56:14.113Z,90.10
2022-10-02T00:58:54.796Z,90.20
2022-10-02T01:01:30.624Z,90.44
2022-10-02T01:04:01.918Z,90.13
2022-10-02T01:06:30.526Z,90.26
2022-10-02T01:09:01.385Z,90.31
2022-10-02T01:11:31.730Z,90.45
2022-10-02T01:13:59.968Z,90.53
2022-10-02T01:16:28.257Z,90.59
2022-10-02T01:18:56.486Z,90.72
2022-10-02T01:21:34.653Z,90.44
2022-10-02T01:24:12.121Z,90.58
2022-10-02T01:26:41.667Z,90.44
2022-10-02T01:29:10.049Z,90.73
2022-10-02T01:31:38.438Z,90.65
2022-10-02T01:34:06.928Z,90.81
2022-10-02T01:36:35.389Z,90.58
2022-10-02T01:39:04.032Z,90.84
2022-10-02T01:41:33.260Z,90.82
2022-10-02T01:44:04.224Z,90.85
2022-10-02T01:46:37.236Z,90.59
2022-10-02T01:49:40.460Z,90.81
2022-10-02T01:52:24.548Z,90.58
2022-10-02T01:55:09.170Z,90.84
2022-10-02T01:57:58.094Z,90.59
2022-10-02T02:00:31.122Z,90.72
2022-10-02T02:03:09.074Z,90.61
2022-10-02T02:05:48.801Z,90.84
2022-10-02T02:08:26.910Z,90.83
2022-10-02T02:11:10.640Z,90.68
2022-10-02T02:13:46.968Z,90.51
2022-10-02T02:16:26.708Z,90.64
2022-10-02T02:19:05.197Z,90.67
2022-10-02T02:21:38.708Z,90.81
2022-10-02T02:24:14.338Z,90.86
2022-10-02T02:26:47.028Z,90.69
2022-10-02T02:29:19.359Z,90.85
2022-10-02T02:31:55.421Z,90.79
2022-10-02T02:34:30.278Z,90.82
2022-10-02T02:37:06.158Z,91.01
2022-10-02T02:39:41.823Z,91.05
2022-10-02T02:42:17.688Z,91.04
2022-10-02T02:44:51.081Z,91.18
2022-10-02T02:47:25.488Z,90.95
2022-10-02T02:49:58.254Z,91.02
2022-10-02T02:52:31.758Z,91.08
2022-10-02T02:55:09.012Z,91.15
2022-10-02T02:57:45.286Z,91.18
2022-10-02T03:00:15.397Z,91.23
2022-10-02T03:02:44.985Z,91.09
2022-10-02T03:05:16.154Z,91.28
2022-10-02T03:07:51.998Z,91.24
2022-10-02T03:10:30.959Z,91.25
2022-10-02T03:13:15.545Z,91.10
2022-10-02T03:15:56.386Z,91.02
2022-10-02T03:18:59.889Z,91.39
2022-10-02T03:21:30.544Z,91.27
2022-10-02T03:24:09.248Z,90.94
2022-10-02T03:26:45.207Z,91.24
2022-10-02T03:29:19.684Z,91.31
2022-10-02T03:31:49.303Z,91.27
2022-10-02T03:34:19.415Z,91.37
2022-10-02T03:36:48.607Z,91.34
2022-10-02T03:39:25.553Z,91.02
2022-10-02T03:41:54.942Z,91.44
2022-10-02T03:44:23.173Z,91.38
2022-10-02T03:46:51.466Z,91.34
2022-10-02T03:49:21.026Z,91.52
2022-10-02T03:51:49.192Z,91.37
2022-10-02T03:54:21.238Z,91.48
2022-10-02T03:56:57.188Z,91.51
2022-10-02T03:59:44.344Z,91.21
2022-10-02T04:02:24.332Z,91.58
2022-10-02T04:05:01.133Z,91.67
2022-10-02T04:07:37.763Z,91.38
2022-10-02T04:10:28.812Z,91.57
2022-10-02T04:13:08.902Z,91.47
2022-10-02T04:15:54.798Z,91.43
2022-10-02T04:18:28.069Z,91.54
2022-10-02T04:21:02.539Z,91.55
2022-10-02T04:23:36.125Z,91.57
2022-10-02T04:26:11.998Z,91.70
2022-10-02T04:28:45.395Z,91.52
2022-10-02T04:31:15.177Z,91.89
2022-10-02T04:33:43.507Z,91.63
2022-10-02T04:36:29.023Z,91.83
2022-10-02T04:39:24.681Z,91.70
2022-10-02T04:42:08.695Z,92.06
2022-10-02T04:44:56.247Z,91.75
2022-10-02T04:47:52.969Z,91.82
2022-10-02T04:50:39.219Z,91.97
2022-10-02T04:53:26.209Z,91.79
2022-10-02T04:56:16.674Z,92.05
2022-10-02T04:59:09.046Z,92.04
2022-10-02T05:02:07.385Z,91.79
2022-10-02T05:04:59.171Z,92.28
2022-10-02T05:08:00.051Z,92.19
2022-10-02T05:10:51.197Z,92.12
2022-10-02T05:13:46.616Z,92.08
2022-10-02T05:16:32.589Z,92.28
2022-10-02T05:19:23.486Z,92.39
2022-10-02T05:22:25.542Z,92.37
2022-10-02T05:25:12.579Z,92.20
2022-10-02T05:28:04.595Z,92.46
2022-10-02T05:30:42.343Z,92.52
2022-10-02T05:33:43.593Z,92.47
2022-10-02T05:36:41.250Z,92.53
2022-10-02T05:39:15.543Z,92.23
2022-10-02T05:41:56.169Z,92.55
2022-10-02T05:44:35.799Z,92.57
2022-10-02T05:47:16.030Z,92.63
2022-10-02T05:49:52.864Z,92.29
2022-10-02T05:52:27.003Z,92.61
2022-10-02T05:55:01.052Z,92.58
2022-10-02T05:57:34.400Z,92.38
2022-10-02T06:00:19.330Z,92.44
2022-10-02T06:02:56.795Z,92.46
2022-10-02T06:05:34.938Z,92.59
2022-10-02T06:08:08.069Z,92.43
2022-10-02T06:10:46.362Z,92.69
2022-10-02T06:13:23.595Z,92.52
2022-10-02T06:16:01.944Z,92.52
2022-10-02T06:18:34.778Z,92.54
2022-10-02T06:21:06.405Z,92.78
2022-10-02T06:23:40.671Z,92.26
2022-10-02T06:26:14.622Z,92.33
2022-10-02T06:28:51.935Z,92.69
2022-10-02T06:31:32.394Z,92.71
2022-10-02T06:34:00.596Z,92.83
2022-10-02T06:36:56.058Z,92.68
2022-10-02T06:39:49.145Z,92.44
2022-10-02T06:42:32.505Z,92.68
2022-10-02T06:45:11.975Z,92.73
2022-10-02T06:47:59.828Z,92.70
2022-10-02T06:50:45.211Z,92.75
2022-10-02T06:53:51.074Z,92.38
2022-10-02T06:56:39.331Z,92.69
2022-10-02T06:59:25.545Z,92.32
2022-10-02T07:02:04.171Z,92.42
2022-10-02T07:04:58.249Z,92.57
2022-10-02T07:07:45.136Z,92.58
2022-10-02T07:10:34.079Z,92.61
2022-10-02T07:13:37.865Z,92.47
2022-10-02T07:16:47.622Z,92.65
2022-10-02T07:19:50.732Z,92.69
2022-10-02T07:22:45.087Z,92.42
2022-10-02T07:25:44.019Z,92.51
2022-10-02T07:28:19.662Z,92.67
2022-10-02T07:30:59.055Z,92.43
2022-10-02T07:33:42.426Z,92.37
2022-10-02T07:36:22.489Z,92.62
2022-10-02T07:39:13.691Z,92.29
2022-10-02T07:42:08.244Z,92.64
2022-10-02T07:45:12.264Z,92.17
2022-10-02T07:48:29.583Z,91.98
2022-10-02T07:51:37.845Z,91.75
2022-10-02T07:54:37.439Z,91.83
2022-10-02T07:57:23.436Z,91.91
2022-10-02T07:59:54.233Z,92.13
2022-10-02T08:02:33.647Z,92.08
2022-10-02T08:05:06.538Z,91.85
2022-10-02T08:07:36.114Z,91.79
2022-10-02T08:10:11.235Z,91.81
2022-10-02T08:12:46.034Z,92.26
2022-10-02T08:15:20.160Z,92.05
2022-10-02T08:17:53.508Z,92.46
2022-10-02T08:20:30.326Z,92.37
2022-10-02T08:23:08.160Z,92.49
2022-10-02T08:25:44.278Z,92.22
2022-10-02T08:28:22.685Z,92.23
2022-10-02T08:30:51.725Z,91.70
2022-10-02T08:33:22.375Z,91.40
2022-10-02T08:36:19.900Z,91.39
2022-10-02T08:38:56.181Z,91.09
2022-10-02T08:42:08.072Z,90.56
2022-10-02T08:45:34.940Z,90.23
2022-10-02T08:48:44.028Z,90.15
2022-10-02T08:52:12.311Z,89.62
2022-10-02T08:55:20.176Z,89.26
2022-10-02T08:58:27.336Z,89.33
2022-10-02T09:01:11.748Z,88.93
2022-10-02T09:04:26.460Z,88.60
2022-10-02T09:07:44.779Z,88.41
2022-10-02T09:10:50.895Z,87.97
2022-10-02T09:14:02.765Z,87.58
2022-10-02T09:16:50.839Z,87.02
2022-10-02T09:19:42.230Z,86.95
2022-10-02T09:23:06.252Z,86.57
2022-10-02T09:25:44.720Z,85.96
2022-10-02T09:29:09.816Z,86.13
2022-10-02T09:32:35.702Z,85.23
2022-10-02T09:35:57.815Z,85.16
2022-10-02T09:39:10.080Z,84.80
2022-10-02T09:42:37.960Z,84.34
2022-10-02T09:46:06.687Z,84.04
2022-10-02T09:49:32.071Z,83.79
2022-10-02T09:52:50.244Z,83.02
2022-10-02T09:56:05.392Z,81.82
2022-10-02T09:59:12.227Z,82.67
2022-10-02T10:02:28.952Z,82.72
2022-10-02T10:05:38.570Z,82.28
2022-10-02T10:08:55.815Z,82.21
2022-10-02T10:12:01.909Z,81.87
2022-10-02T10:15:13.755Z,81.17
2022-10-02T10:18:55.118Z,80.58
2022-10-02T10:22:05.936Z,80.10
2022-10-02T10:25:13.634Z,79.88
2022-10-02T10:28:29.260Z,79.67
2022-10-02T10:31:37.235Z,80.17
2022-10-02T10:34:54.103Z,80.33
2022-10-02T10:38:12.091Z,80.95
2022-10-02T10:40:57.703Z,80.76
2022-10-02T10:44:19.096Z,81.12
2022-10-02T10:47:23.382Z,81.22
2022-10-02T10:50:38.716Z,80.42
2022-10-02T10:53:28.634Z,80.15
2022-10-02T10:56:35.780Z,78.86
2022-10-02T10:59:34.703Z,79.34
2022-10-02T11:02:35.959Z,79.91
2022-10-02T11:05:30.170Z,81.30
2022-10-02T11:08:25.261Z,81.97
2022-10-02T11:11:07.846Z,82.35
2022-10-02T11:14:05.619Z,82.45
2022-10-02T11:17:10.947Z,82.32
2022-10-02T11:19:56.571Z,81.92
2022-10-02T11:23:12.453Z,81.20
2022-10-02T11:26:22.353Z,81.17
2022-10-02T11:29:18.046Z,81.58
2022-10-02T11:32:40.789Z,81.29
2022-10-02T11:35:49.007Z,81.20
2022-10-02T11:38:50.053Z,81.15
2022-10-02T11:41:46.766Z,81.12
2022-10-02T11:44:29.280Z,80.93
2022-10-02T11:47:29.836Z,81.05
2022-10-02T11:50:43.013Z,80.83
2022-10-02T11:53:34.536Z,80.28
2022-10-02T11:56:39.088Z,80.60
2022-10-02T11:59:30.678Z,81.07
2022-10-02T12:02:07.928Z,81.16
2022-10-02T12:04:54.421Z,80.82
2022-10-02T12:07:35.073Z,80.18
2022-10-02T12:10:24.843Z,80.00
2022-10-02T12:13:07.209Z,80.07
2022-10-02T12:15:48.797Z,80.33
2022-10-02T12:18:40.067Z,80.68
2022-10-02T12:21:44.927Z,80.79
2022-10-02T12:24:39.452Z,80.77
2022-10-02T12:27:18.401Z,80.84
2022-10-02T12:30:09.160Z,80.56
2022-10-02T12:33:28.375Z,80.21
2022-10-02T12:36:21.474Z,79.90
2022-10-02T12:38:59.924Z,79.44
2022-10-02T12:41:54.466Z,78.92
2022-10-02T12:44:59.706Z,78.45
2022-10-02T12:48:00.174Z,78.23
2022-10-02T12:50:54.866Z,78.46
2022-10-02T12:53:56.910Z,78.52
2022-10-02T12:56:53.892Z,78.81
2022-10-02T12:59:31.291Z,78.68
2022-10-02T13:02:56.187Z,78.73
2022-10-02T13:05:54.393Z,78.81
2022-10-02T13:08:51.432Z,79.20
2022-10-02T13:11:36.652Z,78.45
2022-10-02T13:14:28.603Z,78.41
2022-10-02T13:17:18.022Z,78.20
2022-10-02T13:20:00.207Z,78.52
2022-10-02T13:22:42.044Z,78.13
2022-10-02T13:25:36.158Z,77.91
2022-10-02T13:28:25.850Z,77.74
2022-10-02T13:31:11.329Z,77.11
2022-10-02T13:34:15.737Z,76.83
2022-10-02T13:37:06.290Z,76.94
2022-10-02T13:39:52.368Z,76.15
2022-10-02T13:42:37.145Z,75.60
2022-10-02T13:45:18.864Z,73.53
2022-10-02T13:48:00.041Z,74.88
2022-10-02T13:50:45.138Z,75.18
2022-10-02T13:53:54.469Z,74.57
2022-10-02T13:56:36.018Z,74.92
2022-10-02T13:59:20.995Z,74.87
2022-10-02T14:02:22.026Z,74.73
2022-10-02T14:05:00.552Z,75.10
2022-10-02T14:07:50.347Z,75.53
2022-10-02T14:10:34.206Z,75.75
2022-10-02T14:13:20.890Z,75.92
2022-10-02T14:16:03.506Z,76.10
2022-10-02T14:19:01.058Z,76.65
2022-10-02T14:21:35.523Z,76.76
2022-10-02T14:25:01.290Z,76.79
2022-10-02T14:28:02.235Z,77.38
2022-10-02T14:30:42.640Z,77.51
2022-10-02T14:33:23.111Z,77.97
2022-10-02T14:36:01.206Z,78.48
2022-10-02T14:38:42.691Z,78.55
2022-10-02T14:41:38.342Z,79.05
2022-10-02T14:44:46.797Z,79.13
2022-10-02T14:47:41.794Z,79.64
2022-10-02T14:50:51.822Z,79.64
2022-10-02T14:53:43.585Z,79.61
2022-10-02T14:57:04.432Z,79.76
2022-10-02T15:00:00.774Z,79.87
2022-10-02T15:02:50.092Z,80.24
2022-10-02T15:05:53.685Z,80.49
2022-10-02T15:08:32.142Z,80.44
2022-10-02T15:11:01.959Z,80.90
2022-10-02T15:13:40.726Z,80.96
2022-10-02T15:16:36.231Z,80.86
2022-10-02T15:19:16.888Z,81.25
2022-10-02T15:21:54.998Z,81.25
2022-10-02T15:24:33.156Z,81.41
2022-10-02T15:27:23.617Z,81.93
2022-10-02T15:30:13.262Z,81.82
2022-10-02T15:33:16.214Z,82.04
2022-10-02T15:36:24.346Z,82.36
2022-10-02T15:39:13.791Z,81.84
2022-10-02T15:41:49.361Z,82.15
2022-10-02T15:44:41.382Z,82.03
2022-10-02T15:47:30.036Z,81.77
2022-10-02T15:50:18.474Z,81.91
2022-10-02T15:53:02.093Z,82.15
2022-10-02T15:55:39.792Z,81.96
2022-10-02T15:58:31.709Z,82.00
2022-10-02T16:01:43.761Z,81.98
2022-10-02T16:04:27.821Z,81.84
2022-10-02T16:07:49.017Z,82.17
2022-10-02T16:10:25.872Z,81.83
2022-10-02T16:13:26.113Z,81.88
2022-10-02T16:16:01.821Z,81.85
2022-10-02T16:18:55.460Z,82.01
2022-10-02T16:21:52.278Z,82.17
2022-10-02T16:24:52.403Z,82.04
2022-10-02T16:27:38.596Z,82.29
2022-10-02T16:30:13.402Z,82.26
2022-10-02T16:33:01.731Z,82.09
2022-10-02T16:36:30.029Z,82.45
2022-10-02T16:39:22.112Z,82.47
2022-10-02T16:42:03.127Z,82.44
2022-10-02T16:45:14.581Z,82.57
2022-10-02T16:47:50.043Z,82.77
2022-10-02T16:50:25.535Z,82.45
2022-10-02T16:53:02.312Z,82.88
2022-10-02T16:55:37.946Z,82.76
2022-10-02T16:58:24.404Z,82.63
2022-10-02T17:00:58.862Z,82.61
2022-10-02T17:03:35.700Z,82.89
2022-10-02T17:06:16.792Z,83.06
2022-10-02T17:08:49.016Z,83.02
2022-10-02T17:11:22.640Z,83.18
2022-10-02T17:14:10.658Z,83.09
2022-10-02T17:16:46.697Z,82.94
2022-10-02T17:19:26.241Z,83.14
2022-10-02T17:22:01.026Z,83.03
2022-10-02T17:24:48.153Z,83.24
2022-10-02T17:27:31.222Z,83.49
2022-10-02T17:30:08.225Z,83.43
2022-10-02T17:32:50.154Z,83.53
2022-10-02T17:35:35.222Z,83.83
2022-10-02T17:38:47.192Z,83.52
2022-10-02T17:41:37.919Z,83.78
2022-10-02T17:44:23.430Z,83.80
2022-10-02T17:47:53.229Z,83.73
2022-10-02T17:50:55.349Z,83.65
2022-10-02T17:54:03.088Z,83.72
2022-10-02T17:57:11.198Z,83.78
2022-10-02T18:00:04.248Z,84.10
2022-10-02T18:02:56.290Z,84.38
2022-10-02T18:05:38.081Z,84.13
2022-10-02T18:08:30.386Z,84.27
2022-10-02T18:11:07.238Z,84.15
2022-10-02T18:13:59.828Z,84.25
2022-10-02T18:16:48.126Z,84.53
2022-10-02T18:19:29.181Z,84.49
2022-10-02T18:22:16.136Z,84.69
2022-10-02T18:25:16.519Z,84.91
2022-10-02T18:28:18.001Z,84.89
2022-10-02T18:30:58.751Z,84.82
2022-10-02T18:33:50.164Z,85.13
2022-10-02T18:36:40.714Z,85.32
2022-10-02T18:39:20.237Z,85.45
2022-10-02T18:41:57.858Z,85.15
2022-10-02T18:44:45.179Z,85.44
2022-10-02T18:47:34.092Z,85.33
2022-10-02T18:50:28.973Z,85.65
2022-10-02T18:53:25.505Z,85.60
2022-10-02T18:56:05.710Z,85.52
2022-10-02T18:59:02.745Z,85.40
2022-10-02T19:01:57.726Z,85.55
2022-10-02T19:05:12.085Z,85.93
2022-10-02T19:07:48.314Z,85.86
2022-10-02T19:10:26.345Z,85.67
2022-10-02T19:13:01.960Z,85.95
2022-10-02T19:15:33.514Z,86.11
2022-10-02T19:18:04.093Z,85.96
2022-10-02T19:20:51.370Z,86.15
2022-10-02T19:23:28.808Z,86.28
2022-10-02T19:26:00.616Z,86.05
2022-10-02T19:28:32.003Z,86.29
2022-10-02T19:31:04.562Z,86.36
2022-10-02T19:33:43.507Z,86.53
2022-10-02T19:36:21.120Z,86.67
2022-10-02T19:38:56.748Z,86.71
2022-10-02T19:41:26.188Z,86.79
2022-10-02T19:43:59.864Z,86.62
2022-10-02T19:46:38.138Z,86.94
2022-10-02T19:49:08.122Z,86.69
2022-10-02T19:51:47.643Z,86.80
2022-10-02T19:54:24.556Z,87.03
2022-10-02T19:56:59.736Z,87.00
2022-10-02T19:59:36.392Z,86.85
2022-10-02T20:02:16.590Z,87.27
2022-10-02T20:04:45.176Z,87.12
2022-10-02T20:07:20.133Z,86.98
2022-10-02T20:09:55.537Z,87.10
2022-10-02T20:12:30.013Z,87.24
2022-10-02T20:15:04.632Z,87.50
2022-10-02T20:17:32.423Z,87.66
2022-10-02T20:20:07.986Z,87.61
2022-10-02T20:22:44.399Z,87.46
2022-10-02T20:25:19.972Z,87.37
2022-10-02T20:27:53.520Z,87.36
2022-10-02T20:30:24.364Z,87.48
2022-10-02T20:33:01.533Z,87.51
2022-10-02T20:35:35.210Z,87.76
2022-10-02T20:38:10.870Z,87.61
2022-10-02T20:40:48.011Z,87.78
2022-10-02T20:43:22.959Z,88.00
2022-10-02T20:46:08.888Z,87.91
2022-10-02T20:49:08.337Z,87.82
2022-10-02T20:52:19.018Z,88.05
2022-10-02T20:54:59.412Z,87.94
2022-10-02T20:58:20.535Z,88.13
2022-10-02T21:01:13.418Z,88.27
2022-10-02T21:04:22.549Z,87.97
2022-10-02T21:07:21.876Z,87.99
2022-10-02T21:10:24.595Z,88.04
2022-10-02T21:13:26.132Z,88.32
2022-10-02T21:16:32.136Z,88.27
2022-10-02T21:19:48.219Z,88.29
2022-10-02T21:23:08.477Z,88.40
2022-10-02T21:26:27.421Z,88.03
2022-10-02T21:29:38.991Z,88.37
2022-10-02T21:32:50.682Z,88.29
2022-10-02T21:35:47.241Z,88.47
2022-10-02T21:38:47.240Z,88.27
2022-10-02T21:41:58.040Z,88.25
2022-10-02T21:45:34.014Z,88.60
2022-10-02T21:49:20.402Z,88.50
2022-10-02T21:52:46.205Z,88.40
2022-10-02T21:56:08.793Z,88.62
2022-10-02T21:59:22.829Z,88.79
2022-10-02T22:02:35.454Z,88.39
2022-10-02T22:06:05.201Z,88.77
2022-10-02T22:08:51.603Z,88.57
2022-10-02T22:11:29.955Z,88.94
2022-10-02T22:14:07.467Z,88.68
2022-10-02T22:16:48.592Z,88.52
2022-10-02T22:19:38.886Z,88.90
2022-10-02T22:22:26.452Z,88.69
2022-10-02T22:25:26.865Z,88.71
2022-10-02T22:28:25.220Z,89.04
2022-10-02T22:31:40.130Z,88.97
2022-10-02T22:34:26.946Z,88.78
2022-10-02T22:37:16.355Z,88.87
2022-10-02T22:39:53.700Z,88.98
2022-10-02T22:42:26.844Z,89.07
2022-10-02T22:45:01.951Z,89.21
2022-10-02T22:47:38.581Z,88.97
2022-10-02T22:50:12.898Z,89.07
2022-10-02T22:52:50.151Z,89.02
2022-10-02T22:55:23.827Z,89.09
2022-10-02T22:57:58.843Z,89.15
2022-10-02T23:00:32.435Z,89.25
2022-10-02T23:03:08.759Z,89.26
2022-10-02T23:05:44.949Z,89.29
2022-10-02T23:08:35.375Z,89.43
2022-10-02T23:11:14.474Z,89.54
2022-10-02T23:13:50.148Z,89.36
2022-10-02T23:16:29.193Z,89.54
2022-10-02T23:19:04.060Z,89.61
2022-10-02T23:21:47.324Z,89.61
2022-10-02T23:24:25.344Z,89.60
2022-10-02T23:27:05.090Z,89.44
2022-10-02T23:29:50.916Z,89.53
2022-10-02T23:32:28.509Z,89.40
2022-10-02T23:35:07.507Z,89.34
2022-10-02T23:37:47.723Z,89.50
2022-10-02T23:40:46.702Z,89.45
2022-10-02T23:43:22.767Z,89.75
2022-10-02T23:46:00.678Z,89.40
2022-10-02T23:48:29.895Z,89.45
2022-10-02T23:51:15.873Z,89.42
2022-10-02T23:54:20.436Z,89.56
2022-10-02T23:57:20.172Z,89.55
